Time;durP1;ratioP1;P1;durP2;ratioP2;P2;SDS_P1;SDS_P2;PMS_P1;PMS_P2;Temp;Humidity;BMP_temperature;BMP_pressure;BME280_temperature;BME280_humidity;BME280_pressure;Samples;Min_cycle;Max_cycle;Signal;HPM_P1;HPM_P2
2023/07/02 00:01:57;;;;;;;6.93;3.95;;;16.30;99.90;;;;;;5033331;28;20487;-83
2023/07/02 00:04:23;;;;;;;9.20;4.07;;;16.20;99.90;;;;;;5052648;28;20049;-83
2023/07/02 00:06:50;;;;;;;6.30;3.90;;;16.20;99.90;;;;;;5054299;28;20047;-84
2023/07/02 00:09:16;;;;;;;4.65;3.45;;;16.30;99.90;;;;;;5051236;28;20139;-84
2023/07/02 00:11:45;;;;;;;5.30;4.00;;;16.30;99.90;;;;;;5054270;28;20211;-84
2023/07/02 00:14:12;;;;;;;5.28;4.38;;;;;;;;;;5032525;28;20068;-84
2023/07/02 00:16:40;;;;;;;5.57;3.90;;;;;;;;;;5031358;28;20068;-84
2023/07/02 00:19:06;;;;;;;4.35;3.85;;;;;;;;;;5033183;28;20139;-84
2023/07/02 00:21:33;;;;;;;5.93;4.15;;;;;;;;;;5052533;28;20037;-84
2023/07/02 00:23:59;;;;;;;5.03;3.88;;;;;;;;;;5055387;28;20510;-84
2023/07/02 00:26:25;;;;;;;6.47;4.53;;;;;;;;;;5067363;28;20049;-83
2023/07/02 00:28:52;;;;;;;4.82;3.70;;;;;;;;;;5055419;28;20305;-83
2023/07/02 00:31:18;;;;;;;6.65;4.10;;;;;;;;;;5056458;28;20514;-84
2023/07/02 00:33:43;;;;;;;5.05;3.72;;;16.00;99.90;;;;;;5039117;28;20407;-83
2023/07/02 00:36:14;;;;;;;7.18;4.20;;;15.90;99.90;;;;;;5077336;28;20036;-82
2023/07/02 00:38:42;;;;;;;6.82;4.10;;;15.90;99.90;;;;;;5051304;28;20047;-82
2023/07/02 00:41:08;;;;;;;5.20;3.95;;;15.80;99.90;;;;;;5062415;28;20060;-82
2023/07/02 00:43:34;;;;;;;7.82;4.63;;;15.90;99.90;;;;;;5044723;28;20048;-82
2023/07/02 00:45:59;;;;;;;7.55;4.00;;;15.90;99.90;;;;;;5067051;28;21420;-82
2023/07/02 00:48:25;;;;;;;5.97;4.22;;;15.90;99.90;;;;;;5064964;28;20124;-82
2023/07/02 00:50:52;;;;;;;6.30;4.35;;;15.90;99.90;;;;;;5057185;28;20417;-82
2023/07/02 00:53:17;;;;;;;8.40;4.43;;;15.90;99.90;;;;;;5051638;28;20544;-81
2023/07/02 00:55:43;;;;;;;6.00;4.32;;;15.90;99.90;;;;;;5049482;28;20041;-82
2023/07/02 00:58:09;;;;;;;6.63;4.38;;;15.90;99.90;;;;;;5059471;28;20028;-83
2023/07/02 01:00:35;;;;;;;8.43;4.57;;;15.90;99.90;;;;;;5034882;28;20045;-83
2023/07/02 01:03:01;;;;;;;10.38;4.85;;;15.90;99.90;;;;;;5049838;28;20037;-83
2023/07/02 01:05:35;;;;;;;8.20;4.10;;;16.00;99.90;;;;;;5061088;28;20038;-82
2023/07/02 01:08:02;;;;;;;14.85;5.28;;;16.00;99.90;;;;;;5055950;28;20048;-82
2023/07/02 01:10:27;;;;;;;9.05;4.95;;;16.00;99.90;;;;;;5056792;28;20052;-82
2023/07/02 01:12:55;;;;;;;9.70;5.18;;;16.00;99.90;;;;;;5048819;28;20097;-82
2023/07/02 01:15:21;;;;;;;8.05;4.93;;;16.00;99.90;;;;;;5058416;28;20041;-82
2023/07/02 01:17:48;;;;;;;11.75;5.13;;;16.00;99.90;;;;;;5059319;28;20452;-82
2023/07/02 01:20:14;;;;;;;9.50;5.10;;;16.00;99.90;;;;;;5037656;28;20499;-82
2023/07/02 01:22:41;;;;;;;13.20;5.78;;;15.90;99.90;;;;;;5083967;28;20120;-82
2023/07/02 01:25:08;;;;;;;10.30;5.47;;;15.90;99.90;;;;;;5065451;28;20121;-82
2023/07/02 01:27:35;;;;;;;14.68;5.97;;;15.90;99.90;;;;;;5059131;28;20041;-81
2023/07/02 01:30:01;;;;;;;8.93;5.23;;;15.80;99.90;;;;;;5066964;28;20040;-81
2023/07/02 01:32:27;;;;;;;11.18;5.70;;;15.70;99.90;;;;;;5067076;28;20353;-82
2023/07/02 01:34:53;;;;;;;12.65;6.25;;;;;;;;;;5064553;28;20041;-83
2023/07/02 01:37:20;;;;;;;13.27;6.13;;;15.60;99.90;;;;;;5045393;28;20056;-82
2023/07/02 01:39:45;;;;;;;13.35;5.60;;;15.50;99.90;;;;;;5047752;28;20086;-82
2023/07/02 01:42:15;;;;;;;11.55;6.25;;;15.40;99.90;;;;;;5042937;28;20041;-82
2023/07/02 01:44:42;;;;;;;12.18;5.70;;;15.40;99.90;;;;;;5049563;28;20021;-82
2023/07/02 01:47:08;;;;;;;11.63;6.32;;;15.40;99.90;;;;;;5065742;28;20084;-82
2023/07/02 01:49:34;;;;;;;14.18;5.95;;;15.30;99.90;;;;;;5066501;28;20058;-82
2023/07/02 01:52:00;;;;;;;12.27;5.93;;;15.30;99.90;;;;;;5080956;28;20044;-82
2023/07/02 01:54:27;;;;;;;13.93;5.63;;;15.30;99.90;;;;;;5054941;28;20541;-82
2023/07/02 01:56:53;;;;;;;11.20;6.07;;;15.30;99.90;;;;;;5058081;28;20048;-82
2023/07/02 01:59:19;;;;;;;13.45;6.32;;;15.30;99.90;;;;;;5058350;28;20123;-82
2023/07/02 02:01:45;;;;;;;14.13;6.38;;;15.30;99.90;;;;;;5042248;28;20065;-82
2023/07/02 02:04:11;;;;;;;15.57;6.50;;;15.30;99.90;;;;;;5066470;28;20041;-82
2023/07/02 02:06:38;;;;;;;14.20;6.18;;;15.20;99.90;;;;;;5059903;28;20041;-84
2023/07/02 02:09:05;;;;;;;14.00;6.75;;;15.10;99.90;;;;;;5037560;28;20053;-84
2023/07/02 02:11:31;;;;;;;18.08;6.40;;;15.00;99.90;;;;;;5051070;28;20112;-84
2023/07/02 02:13:58;;;;;;;17.10;6.95;;;15.00;99.90;;;;;;5030743;28;20091;-84
2023/07/02 02:16:24;;;;;;;14.65;6.43;;;14.90;99.90;;;;;;5036093;28;20498;-84
2023/07/02 02:18:53;;;;;;;13.60;6.82;;;14.80;99.90;;;;;;5026869;28;20042;-84
2023/07/02 02:21:20;;;;;;;16.20;7.05;;;14.70;99.90;;;;;;5057924;28;20053;-83
2023/07/02 02:23:46;;;;;;;15.80;6.68;;;14.70;99.90;;;;;;5054658;28;20056;-83
2023/07/02 02:26:11;;;;;;;16.05;6.80;;;14.60;99.90;;;;;;5082368;28;20061;-83
2023/07/02 02:28:37;;;;;;;16.92;7.55;;;14.60;99.90;;;;;;5079801;28;20048;-81
2023/07/02 02:31:03;;;;;;;18.73;7.28;;;14.50;99.90;;;;;;5069352;28;20094;-80
2023/07/02 02:33:29;;;;;;;19.08;7.72;;;14.50;99.90;;;;;;5077813;28;20067;-80
2023/07/02 02:35:55;;;;;;;19.25;7.82;;;14.40;99.90;;;;;;5064442;28;20541;-81
2023/07/02 02:38:21;;;;;;;20.55;7.38;;;14.40;99.90;;;;;;5064557;28;20068;-81
2023/07/02 02:40:46;;;;;;;21.33;7.80;;;14.40;99.90;;;;;;5067506;28;20094;-81
2023/07/02 02:43:12;;;;;;;21.65;7.97;;;14.30;99.90;;;;;;5077927;28;20042;-81
2023/07/02 02:45:38;;;;;;;18.67;7.82;;;14.30;99.90;;;;;;5027055;28;20046;-81
2023/07/02 02:48:04;;;;;;;19.42;7.75;;;14.30;99.90;;;;;;5045173;28;20077;-81
2023/07/02 02:50:30;;;;;;;23.65;8.90;;;14.10;99.90;;;;;;5019056;28;20040;-82
2023/07/02 02:52:56;;;;;;;16.95;7.93;;;14.20;99.90;;;;;;5057586;28;20059;-82
2023/07/02 02:55:21;;;;;;;19.45;8.35;;;14.10;99.90;;;;;;5064038;28;20411;-83
2023/07/02 02:57:47;;;;;;;17.23;8.00;;;14.30;99.90;;;;;;5076289;28;20041;-84
2023/07/02 03:00:13;;;;;;;20.00;9.27;;;14.10;99.90;;;;;;5071249;28;20041;-84
2023/07/02 03:02:39;;;;;;;19.08;7.93;;;14.10;99.90;;;;;;5046380;28;20049;-84
2023/07/02 03:05:08;;;;;;;22.27;9.00;;;14.50;99.90;;;;;;5030222;28;20052;-85
2023/07/02 03:07:33;;;;;;;21.67;9.43;;;14.00;99.90;;;;;;5068630;28;20043;-84
2023/07/02 03:09:59;;;;;;;22.00;8.07;;;14.00;99.90;;;;;;5064159;28;20049;-84
2023/07/02 03:12:28;;;;;;;22.80;9.07;;;14.10;99.90;;;;;;5044887;28;20041;-84
2023/07/02 03:14:55;;;;;;;19.70;8.68;;;14.20;99.90;;;;;;5062842;28;20100;-83
2023/07/02 03:17:21;;;;;;;20.55;9.55;;;14.00;99.90;;;;;;5062973;28;20041;-83
2023/07/02 03:19:47;;;;;;;17.88;8.70;;;13.90;99.90;;;;;;5063537;28;20076;-83
2023/07/02 03:22:13;;;;;;;23.13;9.02;;;13.90;99.90;;;;;;5064014;28;20041;-83
2023/07/02 03:24:38;;;;;;;22.45;8.60;;;13.90;99.90;;;;;;5064590;28;20052;-83
2023/07/02 03:27:04;;;;;;;23.77;9.45;;;13.90;99.90;;;;;;5061801;28;20052;-83
2023/07/02 03:29:31;;;;;;;20.17;9.32;;;13.90;99.90;;;;;;5043731;28;20407;-83
2023/07/02 03:31:57;;;;;;;25.60;8.98;;;13.90;99.90;;;;;;5045432;28;20036;-83
2023/07/02 03:34:23;;;;;;;19.08;8.38;;;13.90;99.90;;;;;;5062449;28;20296;-83
2023/07/02 03:36:49;;;;;;;27.15;9.50;;;14.00;99.90;;;;;;5045154;28;20442;-82
2023/07/02 03:39:16;;;;;;;20.42;8.32;;;14.00;99.90;;;;;;5059177;28;20047;-82
2023/07/02 03:41:41;;;;;;;24.77;9.10;;;14.00;99.90;;;;;;5060899;28;20033;-82
2023/07/02 03:44:07;;;;;;;22.33;9.10;;;14.00;99.90;;;;;;5056685;28;20052;-82
2023/07/02 03:46:33;;;;;;;18.88;9.38;;;14.00;99.90;;;;;;5069098;28;20045;-82
2023/07/02 03:48:58;;;;;;;21.60;8.95;;;14.10;99.90;;;;;;5050475;28;20135;-82
2023/07/02 03:51:24;;;;;;;21.48;9.02;;;14.20;99.90;;;;;;5047560;28;20040;-82
2023/07/02 03:53:50;;;;;;;19.20;8.18;;;14.20;99.90;;;;;;5015133;28;20096;-82
2023/07/02 03:56:15;;;;;;;22.55;8.73;;;14.20;99.90;;;;;;5056732;28;20041;-82
2023/07/02 03:58:41;;;;;;;23.27;8.75;;;14.30;99.90;;;;;;5037072;28;20077;-81
2023/07/02 04:01:07;;;;;;;20.27;8.75;;;14.30;99.90;;;;;;5061361;28;20096;-81
2023/07/02 04:03:32;;;;;;;21.27;9.18;;;14.30;99.90;;;;;;5057296;28;20045;-79
2023/07/02 04:05:58;;;;;;;22.67;8.88;;;14.40;99.90;;;;;;5055616;28;20049;-79
2023/07/02 04:08:28;;;;;;;23.90;8.65;;;14.40;99.90;;;;;;5070223;28;20059;-80
2023/07/02 04:10:54;;;;;;;19.63;8.02;;;14.40;99.90;;;;;;5048809;28;20127;-81
2023/07/02 04:13:20;;;;;;;18.50;8.20;;;14.40;99.90;;;;;;5066432;28;20041;-81
2023/07/02 04:15:47;;;;;;;20.58;9.13;;;14.50;99.90;;;;;;5058445;28;20100;-82
2023/07/02 04:18:12;;;;;;;17.75;8.25;;;14.50;99.90;;;;;;5059644;28;20039;-82
2023/07/02 04:20:38;;;;;;;23.52;9.35;;;14.60;99.90;;;;;;5056315;28;20048;-81
2023/07/02 04:23:06;;;;;;;19.35;8.00;;;15.00;99.90;;;;;;5059441;28;20047;-82
2023/07/02 04:25:33;;;;;;;19.85;8.48;;;14.70;99.90;;;;;;5021919;28;20064;-81
2023/07/02 04:27:58;;;;;;;15.80;8.15;;;15.10;99.90;;;;;;5059781;28;20410;-83
2023/07/02 04:30:25;;;;;;;15.65;8.57;;;;;;;;;;5036408;28;20045;-83
2023/07/02 04:32:51;;;;;;;23.80;8.77;;;15.00;99.90;;;;;;5060525;28;20069;-82
2023/07/02 04:35:17;;;;;;;16.75;8.25;;;15.00;99.90;;;;;;5059333;28;20124;-82
2023/07/02 04:37:44;;;;;;;19.98;8.43;;;15.10;99.90;;;;;;5058090;28;20056;-82
2023/07/02 04:40:10;;;;;;;20.75;8.23;;;16.40;99.90;;;;;;5057441;28;20033;-84
2023/07/02 04:42:39;;;;;;;19.85;8.10;;;;;;;;;;5055318;28;20076;-84
2023/07/02 04:45:06;;;;;;;19.30;8.32;;;17.90;99.90;;;;;;5053723;28;20041;-83
2023/07/02 04:47:32;;;;;;;19.70;7.97;;;;;;;;;;5054565;28;20045;-83
2023/07/02 04:49:58;;;;;;;15.20;7.35;;;19.20;99.90;;;;;;5038734;28;20049;-83
2023/07/02 04:52:24;;;;;;;18.48;8.13;;;19.40;99.90;;;;;;5054403;28;20043;-83
2023/07/02 04:54:50;;;;;;;18.65;8.45;;;19.70;99.90;;;;;;5055385;28;20037;-82
2023/07/02 04:57:16;;;;;;;18.00;8.48;;;20.00;99.90;;;;;;5053739;28;20041;-82
2023/07/02 04:59:42;;;;;;;19.48;8.82;;;20.30;99.90;;;;;;5054330;28;20048;-82
2023/07/02 05:02:07;;;;;;;23.00;8.82;;;20.80;99.90;;;;;;5052923;28;20036;-81
2023/07/02 05:04:33;;;;;;;18.00;7.97;;;21.40;99.90;;;;;;5051990;28;20044;-82
2023/07/02 05:07:00;;;;;;;20.23;8.60;;;21.50;99.90;;;;;;5037388;28;20040;-82
2023/07/02 05:09:26;;;;;;;16.85;7.97;;;21.80;99.90;;;;;;5056359;28;20045;-82
2023/07/02 05:11:51;;;;;;;19.40;7.55;;;21.80;99.90;;;;;;5056557;28;20063;-82
2023/07/02 05:14:17;;;;;;;18.23;7.68;;;21.90;99.90;;;;;;5060129;28;20033;-82
2023/07/02 05:16:43;;;;;;;16.25;7.60;;;22.40;99.90;;;;;;5058449;28;20044;-81
2023/07/02 05:19:08;;;;;;;20.60;8.15;;;23.00;99.90;;;;;;5040150;28;20048;-82
2023/07/02 05:21:34;;;;;;;12.98;7.30;;;23.10;99.90;;;;;;5055404;28;20038;-82
2023/07/02 05:23:59;;;;;;;17.92;7.88;;;23.60;99.90;;;;;;5062512;28;20028;-81
2023/07/02 05:26:26;;;;;;;16.10;7.30;;;23.70;99.90;;;;;;5060568;28;20033;-80
2023/07/02 05:28:53;;;;;;;16.17;7.70;;;23.90;99.90;;;;;;5054477;28;20060;-79
2023/07/02 05:31:19;;;;;;;16.40;7.32;;;24.10;99.90;;;;;;5052968;28;20048;-79
2023/07/02 05:33:45;;;;;;;16.70;7.70;;;24.30;99.90;;;;;;5037490;28;20040;-80
2023/07/02 05:36:10;;;;;;;14.77;7.20;;;24.50;99.90;;;;;;5054232;28;20120;-82
2023/07/02 05:38:36;;;;;;;16.55;7.65;;;24.70;99.90;;;;;;5020676;28;20266;-82
2023/07/02 05:41:03;;;;;;;15.77;8.45;;;25.10;99.90;;;;;;5039052;28;20047;-81
2023/07/02 05:43:29;;;;;;;18.67;7.68;;;;;;;;;;5053417;28;20040;-81
2023/07/02 05:45:57;;;;;;;14.02;7.50;;;25.40;99.90;;;;;;5060983;28;20041;-81
2023/07/02 05:48:23;;;;;;;17.45;8.40;;;25.80;99.90;;;;;;5063473;28;20094;-83
2023/07/02 05:50:48;;;;;;;17.00;7.90;;;26.20;99.60;;;;;;5048992;28;20044;-83
2023/07/02 05:53:14;;;;;;;16.42;7.55;;;26.10;99.80;;;;;;5058024;28;20049;-83
2023/07/02 05:55:41;;;;;;;18.35;8.20;;;26.30;99.20;;;;;;5058368;28;20045;-83
2023/07/02 05:58:07;;;;;;;13.13;7.00;;;26.30;98.10;;;;;;5035524;28;20099;-83
2023/07/02 06:00:32;;;;;;;15.95;7.55;;;26.40;98.40;;;;;;5024838;28;20044;-82
2023/07/02 06:02:58;;;;;;;17.55;8.05;;;26.60;98.30;;;;;;5059775;28;20179;-82
2023/07/02 06:05:24;;;;;;;16.83;8.30;;;26.50;97.50;;;;;;5059611;28;20045;-80
2023/07/02 06:07:49;;;;;;;16.40;7.57;;;26.50;97.30;;;;;;5028478;28;20047;-80
2023/07/02 06:10:16;;;;;;;18.23;8.32;;;26.30;97.10;;;;;;5066713;28;20482;-80
2023/07/02 06:12:43;;;;;;;15.32;7.40;;;26.50;97.10;;;;;;5042344;28;20079;-81
2023/07/02 06:15:09;;;;;;;17.00;7.53;;;26.60;97.30;;;;;;5054780;28;20040;-81
2023/07/02 06:17:35;;;;;;;15.20;7.43;;;;;;;;;;5054661;28;20783;-81
2023/07/02 06:20:04;;;;;;;14.88;7.60;;;27.20;96.80;;;;;;5035282;28;20045;-80
2023/07/02 06:22:30;;;;;;;14.27;7.13;;;26.60;97.10;;;;;;5049378;28;20171;-80
2023/07/02 06:24:56;;;;;;;14.13;7.82;;;25.90;96.50;;;;;;5049225;28;20063;-81
2023/07/02 06:27:22;;;;;;;15.55;7.15;;;25.50;97.10;;;;;;5053314;28;20037;-85
2023/07/02 06:29:48;;;;;;;18.85;7.53;;;25.30;97.50;;;;;;5040004;28;21636;-86
2023/07/02 06:32:13;;;;;;;16.65;7.68;;;25.10;99.90;;;;;;5037553;28;20052;-86
2023/07/02 06:34:39;;;;;;;15.43;7.55;;;24.90;97.60;;;;;;5035441;28;20087;-86
2023/07/02 06:37:05;;;;;;;18.83;8.13;;;24.50;98.60;;;;;;5037858;28;20064;-85
2023/07/02 06:39:31;;;;;;;17.17;7.55;;;24.20;98.20;;;;;;5040612;28;20041;-84
2023/07/02 06:41:57;;;;;;;18.90;8.13;;;24.70;98.60;;;;;;5046198;28;20188;-85
2023/07/02 06:44:23;;;;;;;15.10;7.32;;;;;;;;;;5041277;28;20128;-85
2023/07/02 06:46:48;;;;;;;19.60;7.57;;;25.40;98.50;;;;;;5038092;28;20041;-84
2023/07/02 06:49:14;;;;;;;15.85;8.07;;;25.70;97.90;;;;;;5039988;28;20090;-84
2023/07/02 06:51:41;;;;;;;15.25;8.13;;;25.80;97.80;;;;;;5057448;28;20093;-83
2023/07/02 06:54:07;;;;;;;17.93;7.67;;;26.00;97.30;;;;;;5022809;28;20052;-84
2023/07/02 06:56:33;;;;;;;16.60;8.23;;;26.30;97.60;;;;;;5052209;28;20782;-84
2023/07/02 06:59:00;;;;;;;14.98;7.78;;;;;;;;;;5054245;28;20052;-84
2023/07/02 07:01:25;;;;;;;14.68;7.50;;;26.60;96.90;;;;;;5031259;28;20048;-84
2023/07/02 07:03:51;;;;;;;16.67;8.00;;;25.80;96.40;;;;;;5030821;28;20475;-85
2023/07/02 07:06:17;;;;;;;16.33;7.93;;;25.00;96.90;;;;;;5034117;28;20472;-84
2023/07/02 07:08:42;;;;;;;19.02;7.85;;;24.30;97.80;;;;;;5049571;28;20054;-83
2023/07/02 07:11:08;;;;;;;16.55;7.75;;;23.40;98.40;;;;;;5048329;28;20124;-83
2023/07/02 07:13:34;;;;;;;16.27;7.55;;;22.80;99.30;;;;;;5049944;28;20037;-84
2023/07/02 07:16:00;;;;;;;18.83;8.60;;;;;;;;;;5056368;28;20041;-84
2023/07/02 07:18:26;;;;;;;22.77;8.52;;;;;;;;;;5056334;28;20116;-84
2023/07/02 07:20:55;;;;;;;16.88;7.82;;;;;;;;;;5052638;28;20121;-84
2023/07/02 07:23:21;;;;;;;16.65;7.85;;;21.90;99.90;;;;;;5042545;28;20083;-84
2023/07/02 07:25:47;;;;;;;13.95;7.35;;;22.60;99.90;;;;;;5061925;28;20033;-84
2023/07/02 07:28:15;;;;;;;19.20;8.02;;;22.90;99.90;;;;;;5047100;28;20101;-83
2023/07/02 07:30:44;;;;;;;14.88;7.70;;;22.70;99.90;;;;;;5050682;28;20069;-82
2023/07/02 07:33:10;;;;;;;20.33;8.20;;;22.30;99.90;;;;;;5046001;28;20080;-83
2023/07/02 07:35:36;;;;;;;17.20;6.97;;;21.90;99.90;;;;;;5052250;28;20053;-82
2023/07/02 07:38:02;;;;;;;17.65;6.93;;;21.70;99.90;;;;;;5067436;28;20105;-82
2023/07/02 07:40:28;;;;;;;16.23;6.75;;;21.60;99.90;;;;;;5064688;28;20513;-82
2023/07/02 07:42:54;;;;;;;10.57;5.50;;;22.50;99.90;;;;;;5063755;28;20036;-83
2023/07/02 07:45:20;;;;;;;13.43;6.70;;;23.20;99.90;;;;;;5055632;28;20038;-83
2023/07/02 07:47:45;;;;;;;14.70;6.10;;;23.70;99.40;;;;;;5080338;28;20394;-82
2023/07/02 07:50:11;;;;;;;10.60;6.40;;;23.60;98.70;;;;;;5059153;28;20047;-83
2023/07/02 07:52:43;;;;;;;12.98;6.18;;;23.30;98.90;;;;;;5017741;28;20044;-82
2023/07/02 07:55:09;;;;;;;12.07;6.15;;;;;;;;;;5034372;28;20056;-83
2023/07/02 07:57:36;;;;;;;13.35;5.95;;;;;;;;;;5070117;28;20051;-83
2023/07/02 08:00:05;;;;;;;13.38;6.78;;;;;;;;;;5055642;28;20040;-84
2023/07/02 08:02:30;;;;;;;14.68;5.60;;;21.40;99.70;;;;;;5055579;28;20053;-83
2023/07/02 08:04:59;;;;;;;15.15;6.35;;;22.20;99.90;;;;;;5073646;28;20076;-82
2023/07/02 08:07:25;;;;;;;13.70;6.25;;;20.30;99.90;;;;;;5056065;28;20045;-80
2023/07/02 08:09:50;;;;;;;18.77;6.25;;;20.30;99.90;;;;;;5067100;28;20045;-82
2023/07/02 08:12:16;;;;;;;13.65;6.22;;;20.40;99.90;;;;;;5073538;28;20056;-82
2023/07/02 08:14:42;;;;;;;14.15;5.95;;;20.70;99.90;;;;;;5060768;28;20033;-77
2023/07/02 08:17:07;;;;;;;13.00;5.80;;;20.90;99.90;;;;;;5035384;28;20041;-80
2023/07/02 08:19:33;;;;;;;11.60;5.20;;;21.20;99.90;;;;;;5057775;28;20049;-78
2023/07/02 08:21:59;;;;;;;11.30;5.50;;;21.40;99.90;;;;;;5062103;28;20042;-79
2023/07/02 08:24:24;;;;;;;10.82;5.50;;;21.50;99.90;;;;;;5065733;28;20047;-81
2023/07/02 08:26:50;;;;;;;10.57;5.18;;;21.90;99.90;;;;;;5047977;28;20060;-81
2023/07/02 08:29:16;;;;;;;13.63;5.25;;;21.70;99.90;;;;;;5026567;28;20041;-80
2023/07/02 08:31:42;;;;;;;11.32;4.70;;;21.60;99.90;;;;;;5063556;28;20182;-79
2023/07/02 08:34:08;;;;;;;13.75;4.45;;;21.30;99.60;;;;;;5069548;28;20059;-79
2023/07/02 08:36:37;;;;;;;9.52;4.10;;;;;;;;;;5061255;28;20033;-80
2023/07/02 08:39:04;;;;;;;10.63;4.05;;;;;;;;;;5057460;28;20045;-79
2023/07/02 08:41:32;;;;;;;9.43;3.70;;;;;;;;;;5059228;28;20072;-82
2023/07/02 08:44:04;;;;;;;11.00;3.80;;;;;;;;;;5051906;28;20059;-78
2023/07/02 08:46:30;;;;;;;10.57;3.72;;;;;;;;;;5046703;28;20068;-78
2023/07/02 08:48:56;;;;;;;9.93;3.67;;;22.00;99.90;;;;;;5059632;28;20530;-78
2023/07/02 08:51:22;;;;;;;8.20;3.55;;;;;;;;;;5039853;28;20045;-81
2023/07/02 08:53:48;;;;;;;8.93;3.80;;;;;;;;;;5049569;28;20092;-81
2023/07/02 08:56:14;;;;;;;6.45;3.50;;;;;;;;;;5048827;28;20069;-79
2023/07/02 08:58:40;;;;;;;10.68;3.45;;;;;;;;;;5030882;28;20515;-79
2023/07/02 09:01:10;;;;;;;5.53;3.10;;;;;;;;;;5050658;28;20442;-79
2023/07/02 09:03:37;;;;;;;5.22;3.13;;;;;;;;;;5052696;28;20479;-79
2023/07/02 09:06:04;;;;;;;6.88;3.50;;;;;;;;;;5048006;28;20108;-79
2023/07/02 09:08:30;;;;;;;7.80;3.42;;;;;;;;;;5021664;28;20053;-79
2023/07/02 09:11:06;;;;;;;7.57;3.45;;;;;;;;;;5018796;28;20403;-79
2023/07/02 09:13:32;;;;;;;10.05;3.55;;;;;;;;;;5066087;28;20064;-78
2023/07/02 09:15:57;;;;;;;10.13;3.50;;;21.70;95.70;;;;;;5051630;28;20041;-78
2023/07/02 09:18:24;;;;;;;7.80;3.67;;;21.70;96.30;;;;;;5049592;28;20500;-78
2023/07/02 09:20:59;;;;;;;9.30;4.18;;;21.30;96.60;;;;;;5028400;28;20048;-77
2023/07/02 09:23:37;;;;;;;8.13;3.72;;;21.20;97.10;;;;;;5049438;28;20106;-77
2023/07/02 09:26:04;;;;;;;10.20;4.10;;;;;;;;;;5052140;28;20037;-78
2023/07/02 09:28:30;;;;;;;13.20;4.82;;;20.80;99.90;;;;;;5051487;28;20396;-78
2023/07/02 09:30:57;;;;;;;9.15;4.15;;;20.60;97.90;;;;;;5041216;28;20052;-78
2023/07/02 09:33:27;;;;;;;10.05;4.07;;;20.40;99.90;;;;;;5041985;28;20060;-78
2023/07/02 09:35:54;;;;;;;9.43;4.47;;;20.30;98.50;;;;;;5065012;28;20044;-78
2023/07/02 09:38:20;;;;;;;9.10;4.93;;;20.20;99.00;;;;;;5060381;28;20537;-78
2023/07/02 09:40:52;;;;;;;11.30;4.38;;;20.50;99.80;;;;;;5048931;28;20037;-78
2023/07/02 09:43:19;;;;;;;12.75;4.95;;;20.90;99.50;;;;;;5021871;28;20045;-78
2023/07/02 09:45:46;;;;;;;11.25;4.97;;;20.80;99.10;;;;;;5033107;28;20510;-78
2023/07/02 09:48:15;;;;;;;10.70;4.65;;;21.10;99.60;;;;;;5055916;28;20099;-78
2023/07/02 09:50:43;;;;;;;9.32;4.53;;;20.80;99.40;;;;;;5064338;28;20049;-78
2023/07/02 09:53:09;;;;;;;11.25;4.00;;;20.80;99.50;;;;;;5046255;28;20072;-78
2023/07/02 09:55:35;;;;;;;9.93;4.00;;;20.80;99.80;;;;;;5049447;28;20081;-78
2023/07/02 09:58:00;;;;;;;8.63;4.25;;;20.90;99.70;;;;;;5052275;28;20046;-78
2023/07/02 10:00:26;;;;;;;11.20;3.35;;;;;;;;;;5052925;28;20041;-79
2023/07/02 10:02:52;;;;;;;8.98;4.07;;;21.30;98.00;;;;;;5052917;28;20041;-77
2023/07/02 10:05:31;;;;;;;8.98;3.80;;;21.30;98.40;;;;;;5051574;28;20391;-79
2023/07/02 10:07:58;;;;;;;9.88;3.60;;;21.30;98.30;;;;;;5031433;28;20042;-80
2023/07/02 10:10:31;;;;;;;10.52;4.38;;;21.70;98.00;;;;;;5051748;28;20059;-80
2023/07/02 10:12:57;;;;;;;14.13;4.50;;;21.70;97.80;;;;;;5050460;28;20090;-79
2023/07/02 10:15:27;;;;;;;15.32;4.40;;;21.80;98.10;;;;;;5053454;28;20479;-80
2023/07/02 10:17:58;;;;;;;9.30;4.10;;;22.30;98.20;;;;;;5039874;28;20120;-80
2023/07/02 10:20:40;;;;;;;12.27;4.40;;;22.20;98.60;;;;;;5059174;28;20048;-80
2023/07/02 10:23:09;;;;;;;10.75;4.65;;;22.10;98.50;;;;;;5052830;28;20041;-80
2023/07/02 10:25:39;;;;;;;16.77;5.05;;;21.60;98.10;;;;;;5050584;28;20041;-79
2023/07/02 10:28:19;;;;;;;12.45;4.18;;;21.40;97.90;;;;;;5053960;28;20052;-79
2023/07/02 10:30:45;;;;;;;10.18;4.32;;;20.90;97.60;;;;;;5049268;28;20114;-79
2023/07/02 10:33:13;;;;;;;8.30;3.90;;;20.50;98.10;;;;;;5051101;28;20092;-79
2023/07/02 10:35:44;;;;;;;11.38;4.40;;;20.50;98.60;;;;;;5034607;28;20407;-80
2023/07/02 10:38:23;;;;;;;9.00;4.25;;;;;;;;;;5027312;28;21521;-77
2023/07/02 10:41:00;;;;;;;10.07;3.67;;;20.00;98.50;;;;;;5048301;28;20046;-77
2023/07/02 10:43:30;;;;;;;8.23;3.97;;;20.10;99.00;;;;;;5051214;28;20082;-77
2023/07/02 10:45:56;;;;;;;12.73;4.97;;;20.00;99.00;;;;;;5049427;28;20053;-78
2023/07/02 10:48:22;;;;;;;9.52;4.05;;;20.00;99.60;;;;;;5050796;28;20459;-78
2023/07/02 10:50:48;;;;;;;7.80;3.92;;;19.90;99.30;;;;;;5046988;28;20099;-77
2023/07/02 10:53:18;;;;;;;7.57;3.25;;;20.00;99.30;;;;;;5013508;28;20049;-77
2023/07/02 10:55:44;;;;;;;11.05;4.03;;;20.20;99.20;;;;;;5049213;28;20041;-77
2023/07/02 10:58:11;;;;;;;8.68;3.65;;;20.50;98.30;;;;;;5047558;28;20041;-77
2023/07/02 11:00:47;;;;;;;8.50;3.85;;;20.90;98.10;;;;;;5048452;28;20381;-77
2023/07/02 11:03:19;;;;;;;8.73;3.50;;;;;;;;;;5046174;28;20041;-78
2023/07/02 11:05:46;;;;;;;6.65;3.15;;;22.30;99.90;;;;;;5046571;28;20055;-78
2023/07/02 11:08:12;;;;;;;7.05;3.17;;;22.50;97.00;;;;;;5048353;28;20072;-78
2023/07/02 11:10:38;;;;;;;9.07;3.10;;;22.70;96.30;;;;;;5049377;28;20045;-77
2023/07/02 11:13:14;;;;;;;6.90;2.92;;;22.50;95.70;;;;;;5045402;28;20384;-78
2023/07/02 11:15:41;;;;;;;9.25;3.67;;;23.10;96.60;;;;;;5046368;28;20075;-78
2023/07/02 11:18:14;;;;;;;10.43;3.63;;;23.30;96.50;;;;;;5045865;28;20500;-78
2023/07/02 11:20:41;;;;;;;6.47;2.95;;;23.40;95.60;;;;;;5029851;28;20076;-78
2023/07/02 11:23:17;;;;;;;7.55;3.17;;;23.20;94.60;;;;;;5029496;28;20518;-79
2023/07/02 11:25:57;;;;;;;9.25;3.75;;;23.30;94.90;;;;;;5043679;28;20041;-78
2023/07/02 11:28:23;;;;;;;7.38;3.20;;;23.20;95.00;;;;;;5012898;28;20107;-79
2023/07/02 11:30:48;;;;;;;12.93;3.20;;;23.30;94.30;;;;;;5034483;28;20049;-79
2023/07/02 11:33:14;;;;;;;6.25;3.17;;;23.10;93.20;;;;;;5052389;28;20403;-79
2023/07/02 11:35:40;;;;;;;10.75;3.95;;;23.20;93.70;;;;;;5033129;28;20036;-79
2023/07/02 11:38:10;;;;;;;10.75;3.45;;;23.20;92.90;;;;;;5038125;28;20400;-78
2023/07/02 11:40:36;;;;;;;10.45;4.13;;;23.30;93.40;;;;;;5056728;28;20056;-78
2023/07/02 11:43:03;;;;;;;8.95;3.80;;;23.80;94.40;;;;;;5057898;28;20364;-79
2023/07/02 11:45:28;;;;;;;16.95;4.30;;;23.90;94.20;;;;;;5064506;28;20080;-79
2023/07/02 11:47:54;;;;;;;12.18;3.85;;;23.20;93.60;;;;;;5076909;28;20040;-79
2023/07/02 11:50:20;;;;;;;7.57;3.20;;;23.00;94.50;;;;;;5063314;28;20052;-79
2023/07/02 11:52:46;;;;;;;8.50;3.50;;;22.90;94.30;;;;;;5036756;28;20049;-78
2023/07/02 11:55:11;;;;;;;6.15;3.30;;;22.70;94.40;;;;;;5052874;28;20041;-78
2023/07/02 11:57:38;;;;;;;7.30;3.42;;;22.60;94.90;;;;;;5036310;28;20045;-78
2023/07/02 12:00:04;;;;;;;6.70;3.50;;;22.40;94.40;;;;;;5055058;28;20407;-78
2023/07/02 12:02:30;;;;;;;7.78;3.08;;;22.20;94.50;;;;;;5063508;28;20040;-78
2023/07/02 12:04:56;;;;;;;8.48;3.50;;;22.10;94.60;;;;;;5074233;28;20051;-78
2023/07/02 12:07:21;;;;;;;10.10;3.78;;;22.00;95.00;;;;;;5074926;28;20045;-78
2023/07/02 12:09:47;;;;;;;7.07;3.25;;;;;;;;;;5058828;28;20062;-78
2023/07/02 12:12:13;;;;;;;8.82;3.30;;;22.10;99.90;;;;;;5040220;28;20132;-79
2023/07/02 12:14:43;;;;;;;6.68;3.17;;;22.20;99.90;;;;;;5057671;28;20103;-79
2023/07/02 12:17:09;;;;;;;8.30;2.97;;;22.50;99.90;;;;;;5057593;28;20071;-79
2023/07/02 12:19:34;;;;;;;6.47;2.80;;;22.50;93.10;;;;;;5037934;28;20128;-78
2023/07/02 12:22:00;;;;;;;6.45;3.10;;;22.60;92.80;;;;;;5051799;28;20072;-78
2023/07/02 12:24:26;;;;;;;7.97;3.00;;;22.50;93.30;;;;;;5051215;28;20132;-78
2023/07/02 12:26:51;;;;;;;18.20;3.10;;;22.90;93.90;;;;;;5054116;28;20084;-78
2023/07/02 12:29:17;;;;;;;9.35;2.88;;;22.70;92.00;;;;;;5020048;28;20037;-78
2023/07/02 12:31:42;;;;;;;15.88;3.42;;;23.00;92.90;;;;;;5054384;28;20519;-78
2023/07/02 12:34:08;;;;;;;11.15;3.00;;;23.10;92.90;;;;;;5054600;28;20467;-78
2023/07/02 12:36:34;;;;;;;11.02;2.75;;;23.00;92.40;;;;;;5061626;28;20048;-78
2023/07/02 12:38:59;;;;;;;8.38;2.95;;;22.70;92.80;;;;;;5057551;28;20124;-78
2023/07/02 12:41:25;;;;;;;5.45;2.60;;;22.50;92.80;;;;;;5053952;28;20551;-78
2023/07/02 12:43:51;;;;;;;9.98;3.13;;;22.90;93.00;;;;;;5054777;28;20045;-78
2023/07/02 12:46:16;;;;;;;9.45;3.15;;;22.50;92.50;;;;;;5055085;28;20055;-78
2023/07/02 12:48:42;;;;;;;7.85;3.17;;;22.10;93.10;;;;;;5021138;28;20127;-78
2023/07/02 12:51:08;;;;;;;6.78;2.63;;;22.00;93.60;;;;;;5057930;28;20045;-79